Предлагаем Вашему вниманию английскую версию страницы: AUTOTAF.ME 26058 - aviation weather forecast Narva

AUTOTAF 26058 - авиапрогноз Нарва

Сегодня рассвет 04:34 UTC, восход солнца 05:17 UTC,
местный полдень 09:51 UTC, заход солнца 14:25 UTC,
наступление темноты 15:08 UTC.

Краткий прогноз 26058 на 9 часов

AUTOTAF.ME 26058 270800Z 2709/2718 18011G18MPS 9999 OVC008     
  BECMG 2713/2715 19008G14MPS

Детальный прогноз 26058 на 24 часа

AUTOTAF.ME 26058 270800Z 2709/2809 18011G18MPS 9999 OVC008 TX11/2709Z TN09/2803Z   
  BECMG 2713/2715 19008G14MPS   
  FM272100 18007G13MPS 5000 BR BKN008 
  BECMG 2722/2800 -RA BR  
  FM280300 29009MPS 9999 -RA OVC003 
  FM280600 23006G12MPS 9999 -RA OVC011 
  FM280900 22010G15MPS 9999 BKN008

Подробный табличный прогноз

Время (UTC) miniAUTOTAF на 3 ч WX FZLVL
M AGL
ICE TURB Т
(°С)
Тd
(°С)
f(%) QNH
(гПа)
WIND/T
06 18011G17MPS 9999 BKN009 2250 MOD FL110/FL120 MOD SFC/FL20 11 9 88 1011 ...
09 18011G18MPS 9999 OVC008 2400 FBL FL90/FL100 MOD SFC/FL20 11 9 85 1010 ...
12 19011G18MPS 9999 BKN008 2100 FBL FL90/FL100 MOD SFC/FL20 11 8 85 1010 ...
15 19008G14MPS 9999 OVC008 2100 FBL FL90/FL100 MOD SFC/FL20 11 9 86 1010 ...
18 19007G14MPS 9999 OVC008 2250 MOD FL120/FL130 MOD SFC/FL20 11 9 86 1010 ...
21 18007G13MPS 5000 BR BKN008 BR 2250 MOD FL110/FL120 MOD SFC/FL20 11 9 89 1007 ...
28.10.2020
00 18008G16MPS 5000 -RA BR OVC007 -RA BR 2100 MOD FL150/FL160 MOD SFC/FL20 11 10 89 1007 ...
03 29009MPS 9999 -RA OVC003 -RA 1800 MOD FL90/FL110 9 8 93 1006 ...
06 23006G12MPS 9999 -RA OVC011 -RA 1500 MOD FL70/FL80 MOD SFC/FL20 9 6 79 1009 ...
09 22010G15MPS 9999 BKN008 1650 MOD SFC/FL20 10 7 80 1011 ...
12 21008G13MPS 9999 BKN009 1650 MOD SFC/FL20 11 7 80 1012 ...
15 20008G13MPS 9999 BKN009 1800 MOD SFC/FL20 10 7 82 1013 ...
18 19008G14MPS 9999 BKN009 1800 MOD FL120/FL150 MOD SFC/FL20 10 7 82 1012 ...
21 19010G15MPS 9999 BKN009 1650 MOD FL110/FL120 MOD SFC/FL20 9 7 86 1011 ...
29.10.2020
00 19007G14MPS 9999 -RA BKN008 -RA 1800 MOD FL90/FL100 MOD SFC/FL20 10 7 83 1011 ...
03 21010G15MPS 9999 OVC008 1800 MOD FL110/FL120 MOD SFC/FL20 9 7 88 1010 ...


Широта 59.4°, долгота 28.1°, высота 30 м абс.
Средняя высота рельефа местности 8 м абс.
Прогнозы обновляются четыре раза в сутки: в 02, 08, 14, 20 ч всемирного времени.


Выбрать прогноз по другой модели Нарва
Онлайн-сводка гроз по Нарва (для РФ и ближнего зарубежья)
Карта фактических гроз в окрестностях Нарва
Динамические прогностические карты (ventusky.com)
Прогностическая карта высоты нижней границы облаков по Нарва (windy.com)
Выбрать другой город

Прогноз предназначен для личного научно-познавательного использования частными лицами
и не предназначен для принятия важных решений и выполнения реальных полётов воздушных судов

При копировании или ином использовании любых материалов данного сайта ссылка на © meteocenter.asia обязательна.

1.26/1.8